Flight Track Log - Related Links

Times and Time Zones

All times are in EDT time to prevent confusion due to time zone crossing. See the KFS724 flight status page for this flight to view local times or setup timezone preferences in your user account.

Time Position Orientation Groundspeed Altitude Reporting Facility
EDT Latitude Longitude Course Direction KTS MPH feet Rate Location/Type
Fri 08:31:14 AM 42.2217 -83.5497 220° Southwest 147 169 1,900  Level Cleveland Center
Fri 08:31:51 AM 42.2003 -83.5739 220° Southwest 181 208 2,900 2,133 Climbing Cleveland Center
Fri 08:33:29 AM 42.1275 -83.6389 214° Southwest 218 251 6,700 2,263 Climbing Chicago Center
Fri 08:33:45 AM 42.0983 -83.6503 196° South 260 299 7,200 2,211 Climbing Cleveland Center
Fri 08:34:45 AM 42.0119 -83.6797 194° South 266 306 9,500 1,600 Climbing Cleveland Center
Fri 08:35:45 AM 41.9339 -83.7122 197° South 289 333 10,400 1,400 Climbing Cleveland Center
Fri 08:36:45 AM 41.8369 -83.7522 197° South 329 379 12,300 2,450 Climbing Cleveland Center
Fri 08:37:45 AM 41.7358 -83.7861 194° South 363 418 15,300 2,550 Climbing Cleveland Center
Fri 08:38:45 AM 41.6328 -83.8172 193° South 374 430 17,400 1,750 Climbing Cleveland Center
Fri 08:39:45 AM 41.5314 -83.8647 199° South 380 437 18,800 1,850 Climbing Cleveland Center
Fri 08:40:45 AM 41.4436 -83.9433 214° Southwest 373 429 21,100 2,350 Climbing Cleveland Center
Fri 08:41:45 AM 41.3639 -84.0333 220° Southwest 378 435 23,500 1,950 Climbing Cleveland Center
Fri 08:42:45 AM 41.2844 -84.1067 215° Southwest 371 427 25,000 1,250 Climbing Cleveland Center
Fri 08:43:45 AM 41.1983 -84.1931 217° Southwest 382 440 26,000 1,403 Climbing Cleveland Center
Fri 08:44:49 AM 41.1414 -84.3047 236° Southwest 375 432 27,900 1,344 Climbing Chicago Center
Fri 08:45:50 AM 41.1236 -84.4375 260° West 368 423 28,800 927 Climbing Chicago Center
Fri 08:46:52 AM 41.1064 -84.5750 261° West 376 433 29,800 1,113 Climbing Chicago Center
Fri 08:47:54 AM 41.0839 -84.7122 258° West 381 438 31,100 1,016 Climbing Chicago Center
Fri 08:48:56 AM 41.0550 -84.8486 254° West 383 441 31,900 976 Climbing Chicago Center
Fri 08:49:57 AM 41.0050 -85.0100 248° West 391 450 33,100 927 Climbing Chicago Center
Fri 08:50:59 AM 40.9650 -85.1447 249° West 392 451 33,800 435 Climbing Chicago Center
Fri 08:52:01 AM 40.8958 -85.2619 232° Southwest 418 481 34,000 97 Climbing Chicago Center
Fri 08:53:03 AM 40.7919 -85.3539 214° Southwest 445 512 34,000  Level Chicago Center
Fri 08:54:04 AM 40.6956 -85.4506 217° Southwest 437 503 34,000  Level Chicago Center
Fri 08:55:06 AM 40.6067 -85.5586 223° Southwest 427 491 34,000  Level Chicago Center
Fri 08:56:08 AM 40.5125 -85.6556 218° Southwest 427 491 34,000  Level Chicago Center
Fri 08:57:09 AM 40.4028 -85.7678 218° Southwest 427 491 34,000  Level Chicago Center
Fri 08:58:11 AM 40.3106 -85.8628 218° Southwest 421 484 34,000  Level Chicago Center
Fri 08:59:13 AM 40.2181 -85.9567 218° Southwest 418 481 34,000  Level Chicago Center
Fri 09:00:15 AM 40.1275 -86.0500 218° Southwest 415 478 34,000  Level Chicago Center
Fri 09:01:16 AM 40.0375 -86.1414 218° Southwest 409 471 34,000  Level Chicago Center
Fri 09:02:18 AM 39.9489 -86.2319 218° Southwest 405 466 34,000  Level Chicago Center
Fri 09:03:20 AM 39.8606 -86.3208 218° Southwest 404 465 34,000  Level Chicago Center
Fri 09:04:21 AM 39.7706 -86.4056 216° Southwest 406 467 34,000  Level Chicago Center
Fri 09:05:23 AM 39.6506 -86.4864 207° Southwest 420 483 34,000  Level Chicago Center
Fri 09:06:26 AM 39.5483 -86.5581 208° Southwest 418 481 34,000  Level Chicago Center
Fri 09:07:27 AM 39.4439 -86.6322 209° Southwest 424 488 34,000  Level Chicago Center
Fri 09:08:28 AM 39.3406 -86.7061 209° Southwest 423 487 34,000  Level Chicago Center
Fri 09:09:36 AM 39.2211 -86.7953 210° Southwest 424 488 34,000  Level Indianapolis Center
Fri 09:10:38 AM 39.1111 -86.8814 211° Southwest 422 486 34,000  Level Indianapolis Center
Fri 09:11:40 AM 39.0119 -86.9617 212° Southwest 420 483 34,000  Level Indianapolis Center
Fri 09:12:42 AM 38.9128 -87.0425 212° Southwest 422 486 34,000  Level Indianapolis Center
Fri 09:13:44 AM 38.8144 -87.1231 213° Southwest 419 482 34,000  Level Indianapolis Center
Fri 09:14:46 AM 38.7169 -87.2042 213° Southwest 417 480 34,000  Level Indianapolis Center
Fri 09:15:48 AM 38.6194 -87.2831 212° Southwest 415 478 34,000  Level Indianapolis Center
Fri 09:16:49 AM 38.5033 -87.3744 212° Southwest 412 474 34,000  Level Indianapolis Center
Fri 09:17:51 AM 38.4053 -87.4461 210° Southwest 412 474 34,000  Level Indianapolis Center
Fri 09:18:53 AM 38.3044 -87.5139 208° Southwest 412 474 34,000  Level Indianapolis Center
Fri 09:19:55 AM 38.1975 -87.5703 203° Southwest 415 478 34,000  Level Indianapolis Center
Fri 09:20:57 AM 38.0994 -87.6397 209° Southwest 404 465 34,000  Level Indianapolis Center
Fri 09:21:59 AM 38.0022 -87.7103 210° Southwest 403 464 34,000  Level Indianapolis Center
Fri 09:23:01 AM 37.8908 -87.7964 211° Southwest 389 448 34,000  Level Indianapolis Center
Fri 09:24:03 AM 37.8128 -87.8883 223° Southwest 381 438 34,000  Level Indianapolis Center
Fri 09:25:05 AM 37.7383 -87.9653 219° Southwest 377 434 34,000  Level Indianapolis Center
Fri 09:26:07 AM 37.6439 -88.0675 221° Southwest 380 437 34,000  Level Indianapolis Center
Fri 09:27:09 AM 37.5617 -88.1550 220° Southwest 384 442 34,000  Level Indianapolis Center
Fri 09:28:11 AM 37.4789 -88.2425 220° Southwest 386 444 34,000  Level Indianapolis Center
Fri 09:29:13 AM 37.3964 -88.3303 220° Southwest 385 443 34,000  Level Indianapolis Center
Fri 09:30:15 AM 37.3117 -88.4181 220° Southwest 389 448 34,000  Level Indianapolis Center
Fri 09:31:17 AM 37.2289 -88.5053 220° Southwest 388 447 34,000  Level Indianapolis Center
Fri 09:32:21 AM 37.1403 -88.6056 222° Southwest 400 460 34,000  Level Memphis Center
Fri 09:33:21 AM 37.0581 -88.6906 220° Southwest 400 460 34,000  Level Memphis Center
Fri 09:34:21 AM 36.9758 -88.7756 220° Southwest 395 455 34,000  Level Memphis Center
Fri 09:35:21 AM 36.8917 -88.8628 220° Southwest 401 461 34,000  Level Memphis Center
Fri 09:36:21 AM 36.8072 -88.9497 220° Southwest 401 461 34,000  Level Memphis Center
Fri 09:37:21 AM 36.7247 -89.0342 219° Southwest 401 461 34,000  Level Memphis Center
Fri 09:38:21 AM 36.6403 -89.1208 219° Southwest 401 461 34,000  Level Memphis Center
Fri 09:39:21 AM 36.5556 -89.2100 220° Southwest 401 461 34,000  Level Memphis Center
Fri 09:40:21 AM 36.4667 -89.2989 219° Southwest 401 461 34,000 50 Level Memphis Center
Fri 09:41:21 AM 36.3819 -89.3853 219° Southwest 406 467 34,100 500 Climbing Memphis Center
Fri 09:42:21 AM 36.2786 -89.4894 219° Southwest 427 491 35,000 800 Climbing Memphis Center
Fri 09:43:21 AM 36.1917 -89.5778 219° Southwest 422 486 35,700 500 Climbing Memphis Center
Fri 09:44:21 AM 36.1025 -89.6686 219° Southwest 422 486 36,000 150 Climbing Memphis Center
Fri 09:45:21 AM 36.0111 -89.7592 219° Southwest 427 491 36,000  Level Memphis Center
Fri 09:46:21 AM 35.9178 -89.8519 219° Southwest 427 491 36,000  Level Memphis Center
Fri 09:47:21 AM 35.8242 -89.9422 218° Southwest 432 497 36,000  Level Memphis Center
Fri 09:48:21 AM 35.7308 -90.0347 219° Southwest 432 497 36,000  Level Memphis Center
Fri 09:49:21 AM 35.6453 -90.1269 221° Southwest 423 487 36,000  Level Memphis Center
Fri 09:50:21 AM 35.5517 -90.2192 219° Southwest 430 495 36,000  Level Memphis Center
Fri 09:51:21 AM 35.4600 -90.3111 219° Southwest 430 495 36,000  Level Memphis Center
Fri 09:52:21 AM 35.3683 -90.4028 219° Southwest 430 495 36,000  Level Memphis Center
Fri 09:53:21 AM 35.2806 -90.4892 219° Southwest 423 487 36,000  Level Memphis Center
Fri 09:54:21 AM 35.1908 -90.5756 218° Southwest 423 487 36,000  Level Memphis Center
Fri 09:55:21 AM 35.1008 -90.6642 219° Southwest 418 481 36,000  Level Memphis Center
Fri 09:56:21 AM 35.0131 -90.7500 219° Southwest 418 481 36,000  Level Memphis Center
Fri 09:57:21 AM 34.9250 -90.8358 219° Southwest 413 475 36,000  Level Memphis Center
Fri 09:58:21 AM 34.8475 -90.9114 219° Southwest 413 475 36,000  Level Memphis Center
Fri 09:59:21 AM 34.7533 -90.9992 217° Southwest 413 475 36,000  Level Memphis Center
Fri 10:00:21 AM 34.6672 -91.0869 220° Southwest 420 483 36,000  Level Memphis Center
Fri 10:01:21 AM 34.5750 -91.1744 218° Southwest 420 483 36,000  Level Memphis Center
Fri 10:02:21 AM 34.4825 -91.2617 218° Southwest 420 483 36,000  Level Memphis Center
Fri 10:03:21 AM 34.3900 -91.3489 218° Southwest 425 489 36,000  Level Memphis Center
Fri 10:04:21 AM 34.2994 -91.4358 218° Southwest 425 489 36,000  Level Memphis Center
Fri 10:05:21 AM 34.1964 -91.5300 217° Southwest 425 489 36,000  Level Memphis Center
Fri 10:06:22 AM 34.1058 -91.6164 218° Southwest 425 489 36,000  Level Memphis Center
Fri 10:07:21 AM 34.0172 -91.7028 219° Southwest 419 482 36,000  Level Memphis Center
Fri 10:09:30 AM 33.8283 -91.8856 219° Southwest 421 484 36,000  Level Fort Worth Center
Fri 10:10:30 AM 33.7339 -91.9714 217° Southwest 427 491 36,000  Level Fort Worth Center
Fri 10:11:30 AM 33.6417 -92.0569 218° Southwest 427 491 36,000  Level Fort Worth Center
Fri 10:12:30 AM 33.5492 -92.1397 217° Southwest 427 491 36,000  Level Fort Worth Center
Fri 10:13:30 AM 33.4608 -92.2222 218° Southwest 422 486 36,000  Level Fort Worth Center
Fri 10:14:30 AM 33.3725 -92.3047 218° Southwest 417 480 36,000  Level Fort Worth Center
Fri 10:15:30 AM 33.2800 -92.3894 217° Southwest 417 480 36,000  Level Fort Worth Center
Fri 10:16:30 AM 33.1892 -92.4739 218° Southwest 417 480 36,000  Level Fort Worth Center
Fri 10:17:30 AM 33.0986 -92.5533 216° Southwest 417 480 36,000  Level Fort Worth Center
Fri 10:18:30 AM 33.0078 -92.6353 217° Southwest 422 486 36,000  Level Fort Worth Center
Fri 10:19:30 AM 32.9192 -92.7192 218° Southwest 417 480 36,000  Level Fort Worth Center
Fri 10:20:30 AM 32.8442 -92.7847 216° Southwest 417 480 36,000  Level Fort Worth Center
Fri 10:21:30 AM 32.7453 -92.8739 217° Southwest 417 480 36,000  Level Fort Worth Center
Fri 10:22:30 AM 32.6542 -92.9575 218° Southwest 417 480 36,000  Level Fort Worth Center
Fri 10:23:30 AM 32.5653 -93.0383 217° Southwest 422 486 36,000  Level Fort Worth Center
Fri 10:24:30 AM 32.4742 -93.1189 217° Southwest 417 480 36,000  Level Fort Worth Center
Fri 10:25:30 AM 32.3850 -93.1969 216° Southwest 417 480 36,000  Level Fort Worth Center
Fri 10:26:30 AM 32.2939 -93.2797 218° Southwest 412 474 36,000  Level Fort Worth Center
Fri 10:27:30 AM 32.2044 -93.3600 217° Southwest 412 474 36,000  Level Fort Worth Center
Fri 10:28:30 AM 32.1114 -93.4525 220° Southwest 412 474 36,000  Level Fort Worth Center
Fri 10:29:30 AM 32.0200 -93.5347 217° Southwest 412 474 36,000  Level Fort Worth Center
Fri 10:31:42 AM 31.8253 -93.7028 216° Southwest 413 475 36,000  Level Houston Center
Fri 10:32:30 AM 31.7536 -93.7708 219° Southwest 421 484 36,000  Level Fort Worth Center
Fri 10:34:49 AM 31.5392 -93.9519 216° Southwest 421 484 36,000  Level Houston Center
Fri 10:35:51 AM 31.4450 -94.0356 217° Southwest 423 487 36,000  Level Houston Center
Fri 10:36:53 AM 31.3306 -94.1350 217° Southwest 426 490 36,000  Level Houston Center
Fri 10:37:55 AM 31.2347 -94.2175 216° Southwest 425 489 36,000  Level Houston Center
Fri 10:38:57 AM 31.1397 -94.3017 217° Southwest 426 490 36,000  Level Houston Center
Fri 10:39:59 AM 31.0433 -94.3847 216° Southwest 426 490 36,000  Level Houston Center
Fri 10:41:01 AM 30.9472 -94.4692 217° Southwest 427 491 36,000  Level Houston Center
Fri 10:42:03 AM 30.8500 -94.5522 216° Southwest 430 495 36,000  Level Houston Center
Fri 10:43:05 AM 30.7542 -94.6353 217° Southwest 428 493 36,000  Level Houston Center
Fri 10:44:07 AM 30.6575 -94.7175 216° Southwest 427 491 36,000  Level Houston Center
Fri 10:45:09 AM 30.5431 -94.8161 217° Southwest 425 489 36,000  Level Houston Center
Fri 10:46:12 AM 30.4481 -94.8986 217° Southwest 424 488 36,000  Level Houston Center
Fri 10:47:14 AM 30.3647 -94.9700 216° Southwest 424 488 36,000  Level Houston Center
Fri 10:48:16 AM 30.2514 -95.0664 216° Southwest 421 484 36,000  Level Houston Center
Fri 10:49:18 AM 30.1575 -95.1464 216° Southwest 421 484 36,000  Level Houston Center
Fri 10:50:20 AM 30.0633 -95.2267 216° Southwest 423 487 36,000  Level Houston Center
Fri 10:51:22 AM 29.9689 -95.3058 216° Southwest 423 487 36,000  Level Houston Center
Fri 10:52:24 AM 29.8761 -95.3853 217° Southwest 421 484 36,000  Level Houston Center
Fri 10:53:26 AM 29.7633 -95.4797 216° Southwest 422 486 36,000  Level Houston Center
Fri 10:54:28 AM 29.6700 -95.5564 216° Southwest 419 482 36,000  Level Houston Center
Fri 10:55:30 AM 29.5733 -95.6364 216° Southwest 427 491 36,000  Level Houston Center
Fri 10:56:33 AM 29.4783 -95.7144 216° Southwest 424 488 36,000  Level Houston Center
Fri 10:57:35 AM 29.3844 -95.7931 216° Southwest 420 483 36,000  Level Houston Center
Fri 10:58:37 AM 29.2708 -95.8875 216° Southwest 420 483 36,000  Level Houston Center
Fri 10:59:39 AM 29.1761 -95.9661 216° Southwest 422 486 36,000 -48 Level Houston Center
Fri 11:00:41 AM 29.0800 -96.0447 216° Southwest 423 487 35,900 -48 Descending Houston Center
Fri 11:01:43 AM 28.9842 -96.1239 216° Southwest 423 487 35,900  Level Houston Center
Fri 11:02:45 AM 28.8889 -96.2019 216° Southwest 422 486 35,900  Level Houston Center
Fri 11:03:47 AM 28.7939 -96.2819 216° Southwest 423 487 35,900  Level Houston Center
Fri 11:04:50 AM 28.7219 -96.4136 238° Southwest 411 473 35,900  Level Houston Center
Fri 11:05:52 AM 28.6711 -96.5283 243° Southwest 407 468 35,900  Level Houston Center
Fri 11:06:54 AM 28.6344 -96.6497 251° West 405 466 35,900  Level Houston Center
Fri 11:07:56 AM 28.6039 -96.7722 254° West 403 464 35,900  Level Houston Center
Fri 11:08:58 AM 28.5694 -96.8942 252° West 404 465 35,900  Level Houston Center
Fri 11:10:00 AM 28.5047 -97.0000 235° Southwest 412 474 35,900  Level Houston Center
Fri 11:11:02 AM 28.4442 -97.1392 244° Southwest 406 467 35,900  Level Houston Center
Fri 11:12:05 AM 28.3964 -97.2556 245° Southwest 407 468 35,900  Level Houston Center
Fri 11:13:07 AM 28.3497 -97.3728 246° West 407 468 35,900  Level Houston Center
Fri 11:14:09 AM 28.3019 -97.4911 245° Southwest 411 473 35,900  Level Houston Center
Fri 11:15:11 AM 28.2542 -97.6083 245° Southwest 410 472 35,900  Level Houston Center
Fri 11:16:13 AM 28.2053 -97.7247 245° Southwest 411 473 35,900  Level Houston Center
Fri 11:17:15 AM 28.1547 -97.8453 245° Southwest 410 472 35,900  Level Houston Center
Fri 11:18:17 AM 28.0989 -97.9864 246° West 410 472 35,900  Level Houston Center
Fri 11:19:19 AM 28.0508 -98.1011 245° Southwest 406 467 35,900  Level Houston Center
Fri 11:20:22 AM 28.0031 -98.2167 245° Southwest 406 467 35,900  Level Houston Center
Fri 11:21:24 AM 27.9556 -98.3322 245° Southwest 407 468 35,900  Level Houston Center
Fri 11:22:26 AM 27.9075 -98.4469 245° Southwest 405 466 35,900  Level Houston Center
Fri 11:23:28 AM 27.8589 -98.5628 245° Southwest 408 470 35,900  Level Houston Center
Fri 11:24:30 AM 27.8028 -98.7011 245° Southwest 407 468 35,900  Level Houston Center
Fri 11:25:32 AM 27.7544 -98.8164 245° Southwest 408 470 35,900  Level Houston Center
Fri 11:26:34 AM 27.7069 -98.9308 245° Southwest 408 470 35,900  Level Houston Center
Fri 11:27:36 AM 27.6597 -99.0450 245° Southwest 409 471 35,900  Level Houston Center
Fri 11:28:39 AM 27.6017 -99.1814 244° Southwest 410 472 35,900  Level Houston Center
Fri 11:29:41 AM 27.5531 -99.2950 244° Southwest 408 470 35,900  Level Houston Center
Fri 11:30:43 AM 27.5053 -99.4094 245° Southwest 405 466 35,900  Level Houston Center
Fri 11:32:00 AM 27.4263 -99.5379 249° West  Level FlightAware Approximate
Fri 11:39:00 AM 26.7054 -99.7928 197° South  Level FlightAware Approximate
Fri 11:40:00 AM 26.6004 -99.8277 197° South  Level FlightAware Approximate
Fri 11:41:00 AM 26.4952 -99.8615 195° South  Level FlightAware Approximate
Fri 11:42:00 AM 26.3894 -99.8932 195° South  Level FlightAware Approximate
Fri 11:43:00 AM 26.2838 -99.9255 195° South  Level FlightAware Approximate
Fri 11:44:00 AM 26.1782 -99.9580 195° South  Level FlightAware Approximate
Fri 11:45:00 AM 26.0732 -99.9923 197° South  Level FlightAware Approximate
Fri 11:46:00 AM 25.9698 -100.0318 204° Southwest  Level FlightAware Approximate
Fri 11:47:00 AM 25.8636 -100.0606 190° South  Level FlightAware Approximate
Fri 11:48:00 AM 25.7785 -100.1069 North  Level Estimated
Fri 11:49:00 AM 25.7785 -100.1069 North  Level Estimated
Fri 11:50:00 AM 25.7785 -100.1069 North  Level Estimated
Fri 11:51:00 AM 25.7785 -100.1069 North  Level Estimated
Fri 11:52:00 AM 25.7785 -100.1069 North  Level Estimated
Fri 11:53:00 AM 25.7785 -100.1069 North  Level Estimated
Fri 11:54:00 AM 25.7785 -100.1069 North  Level Estimated
Fri 11:55:00 AM 25.7785 -100.1069 North  Level Estimated
Fri 11:56:00 AM 25.7785 -100.1069 North  Level Estimated
Fri 11:57:00 AM 25.7785 -100.1069 North  Level Estimated
Fri 11:58:00 AM 25.7785 -100.1069 North  Level Estimated
Fri 11:59:00 AM 25.7785 -100.1069 North  Level Estimated
Fri 12:00:00 PM 25.7785 -100.1069 North  Level Estimated
Fri 12:01:00 PM 25.7785 -100.1069 North  Level Estimated
Fri 12:02:00 PM 25.7785 -100.1069 North  Level Estimated
Fri 12:03:00 PM 25.7785 -100.1069 North  Level Estimated
Fri 12:04:00 PM 25.7785 -100.1069 North  Level Estimated
Fri 12:05:00 PM 25.7785 -100.1069 North  Level Estimated
Fri 12:06:00 PM 25.7785 -100.1069 North  Level Estimated
Fri 12:07:00 PM 25.7785 -100.1069 North  Level Estimated
Fri 12:08:00 PM 25.7785 -100.1069 North  Level Estimated

Login

Don't have an account? Register now (free) for customized features, flight alerts, and more!